sensor_id;sensor_type;location;lat;lon;timestamp;pressure;altitude;pressure_sealevel;temperature;humidity
74403;BME280;62837;51.082;13.744;2023-06-10T00:01:38;100136.19;;;20.71;66.49
74403;BME280;62837;51.082;13.744;2023-06-10T00:04:09;100137.14;;;20.69;66.64
74403;BME280;62837;51.082;13.744;2023-06-10T00:06:40;100140.48;;;20.60;66.51
74403;BME280;62837;51.082;13.744;2023-06-10T00:09:11;100140.41;;;20.55;66.55
74403;BME280;62837;51.082;13.744;2023-06-10T00:11:44;100137.89;;;20.52;66.72
74403;BME280;62837;51.082;13.744;2023-06-10T00:14:15;100144.10;;;20.48;66.63
74403;BME280;62837;51.082;13.744;2023-06-10T00:16:46;100141.45;;;20.51;66.76
74403;BME280;62837;51.082;13.744;2023-06-10T00:19:16;100139.92;;;20.55;66.93
74403;BME280;62837;51.082;13.744;2023-06-10T00:21:48;100135.79;;;20.53;66.86
74403;BME280;62837;51.082;13.744;2023-06-10T00:24:22;100143.77;;;20.57;66.65
74403;BME280;62837;51.082;13.744;2023-06-10T00:26:53;100142.80;;;20.58;66.63
74403;BME280;62837;51.082;13.744;2023-06-10T00:29:24;100148.08;;;20.60;66.46
74403;BME280;62837;51.082;13.744;2023-06-10T00:31:55;100152.00;;;20.62;66.54
74403;BME280;62837;51.082;13.744;2023-06-10T00:34:27;100148.81;;;20.65;66.51
74403;BME280;62837;51.082;13.744;2023-06-10T00:36:57;100152.98;;;20.63;66.29
74403;BME280;62837;51.082;13.744;2023-06-10T00:39:28;100154.30;;;20.62;66.68
74403;BME280;62837;51.082;13.744;2023-06-10T00:41:59;100154.84;;;20.61;66.84
74403;BME280;62837;51.082;13.744;2023-06-10T00:44:30;100163.45;;;20.61;66.54
74403;BME280;62837;51.082;13.744;2023-06-10T00:47:01;100161.93;;;20.61;66.55
74403;BME280;62837;51.082;13.744;2023-06-10T00:49:32;100167.30;;;20.60;66.13
74403;BME280;62837;51.082;13.744;2023-06-10T00:52:02;100171.17;;;20.56;65.99
74403;BME280;62837;51.082;13.744;2023-06-10T00:54:32;100175.88;;;20.50;64.73
74403;BME280;62837;51.082;13.744;2023-06-10T00:57:03;100173.30;;;20.46;64.90
74403;BME280;62837;51.082;13.744;2023-06-10T00:59:37;100181.08;;;20.44;64.91
74403;BME280;62837;51.082;13.744;2023-06-10T01:02:09;100186.15;;;20.41;65.04
74403;BME280;62837;51.082;13.744;2023-06-10T01:04:40;100187.92;;;20.35;65.30
74403;BME280;62837;51.082;13.744;2023-06-10T01:07:14;100196.23;;;20.32;65.04
74403;BME280;62837;51.082;13.744;2023-06-10T01:09:54;100201.44;;;20.31;64.76
74403;BME280;62837;51.082;13.744;2023-06-10T01:12:30;100207.91;;;20.33;64.52
74403;BME280;62837;51.082;13.744;2023-06-10T01:15:03;100206.41;;;20.34;64.27
74403;BME280;62837;51.082;13.744;2023-06-10T01:17:36;100207.94;;;20.30;64.11
74403;BME280;62837;51.082;13.744;2023-06-10T01:20:10;100204.84;;;20.25;64.58
74403;BME280;62837;51.082;13.744;2023-06-10T01:22:41;100211.96;;;20.22;64.60
74403;BME280;62837;51.082;13.744;2023-06-10T01:25:12;100211.80;;;20.13;64.74
74403;BME280;62837;51.082;13.744;2023-06-10T01:27:46;100211.30;;;20.03;65.15
74403;BME280;62837;51.082;13.744;2023-06-10T01:30:20;100213.71;;;19.93;65.14
74403;BME280;62837;51.082;13.744;2023-06-10T01:32:55;100214.19;;;19.87;65.33
74403;BME280;62837;51.082;13.744;2023-06-10T01:35:28;100215.20;;;19.88;65.19
74403;BME280;62837;51.082;13.744;2023-06-10T01:38:02;100214.74;;;19.88;64.97
74403;BME280;62837;51.082;13.744;2023-06-10T01:40:31;100213.09;;;19.82;65.22
74403;BME280;62837;51.082;13.744;2023-06-10T01:43:03;100220.36;;;19.63;65.62
74403;BME280;62837;51.082;13.744;2023-06-10T01:45:34;100217.23;;;19.45;66.03
74403;BME280;62837;51.082;13.744;2023-06-10T01:48:06;100221.59;;;19.32;66.76
74403;BME280;62837;51.082;13.744;2023-06-10T01:50:36;100225.25;;;19.27;66.70
74403;BME280;62837;51.082;13.744;2023-06-10T01:53:07;100228.42;;;19.27;66.84
74403;BME280;62837;51.082;13.744;2023-06-10T01:55:38;100233.30;;;19.34;66.90
74403;BME280;62837;51.082;13.744;2023-06-10T01:58:09;100236.73;;;19.39;66.80
74403;BME280;62837;51.082;13.744;2023-06-10T02:00:39;100242.35;;;19.32;67.24
74403;BME280;62837;51.082;13.744;2023-06-10T02:03:11;100241.56;;;19.14;67.35
74403;BME280;62837;51.082;13.744;2023-06-10T02:05:42;100240.14;;;19.00;67.54
74403;BME280;62837;51.082;13.744;2023-06-10T02:08:12;100243.54;;;18.94;67.80
74403;BME280;62837;51.082;13.744;2023-06-10T02:10:43;100243.42;;;18.95;67.84
74403;BME280;62837;51.082;13.744;2023-06-10T02:13:14;100241.64;;;18.94;67.86
74403;BME280;62837;51.082;13.744;2023-06-10T02:15:45;100244.80;;;19.03;67.75
74403;BME280;62837;51.082;13.744;2023-06-10T02:18:16;100248.80;;;19.12;67.65
74403;BME280;62837;51.082;13.744;2023-06-10T02:20:50;100248.70;;;19.12;67.67
74403;BME280;62837;51.082;13.744;2023-06-10T02:23:21;100251.14;;;19.20;67.43
74403;BME280;62837;51.082;13.744;2023-06-10T02:25:52;100251.18;;;19.27;67.38
74403;BME280;62837;51.082;13.744;2023-06-10T02:28:22;100254.96;;;19.36;67.11
74403;BME280;62837;51.082;13.744;2023-06-10T02:30:53;100258.61;;;19.39;66.96
74403;BME280;62837;51.082;13.744;2023-06-10T02:33:24;100257.30;;;19.25;66.92
74403;BME280;62837;51.082;13.744;2023-06-10T02:35:55;100261.24;;;19.14;67.22
74403;BME280;62837;51.082;13.744;2023-06-10T02:38:26;100259.08;;;18.99;67.46
74403;BME280;62837;51.082;13.744;2023-06-10T02:40:58;100256.55;;;18.78;67.96
74403;BME280;62837;51.082;13.744;2023-06-10T02:43:29;100255.77;;;18.64;68.32
74403;BME280;62837;51.082;13.744;2023-06-10T02:46:00;100256.70;;;18.67;68.45
74403;BME280;62837;51.082;13.744;2023-06-10T02:48:34;100253.02;;;18.65;68.50
74403;BME280;62837;51.082;13.744;2023-06-10T02:51:12;100253.38;;;18.71;68.40
74403;BME280;62837;51.082;13.744;2023-06-10T02:53:46;100252.66;;;18.75;68.44
74403;BME280;62837;51.082;13.744;2023-06-10T02:56:18;100250.68;;;18.82;68.35
74403;BME280;62837;51.082;13.744;2023-06-10T02:58:48;100246.38;;;18.83;68.10
74403;BME280;62837;51.082;13.744;2023-06-10T03:01:18;100245.66;;;18.76;68.21
74403;BME280;62837;51.082;13.744;2023-06-10T03:03:56;100248.75;;;18.66;68.30
74403;BME280;62837;51.082;13.744;2023-06-10T03:06:27;100251.30;;;18.65;68.58
74403;BME280;62837;51.082;13.744;2023-06-10T03:09:06;100254.58;;;18.76;68.90
74403;BME280;62837;51.082;13.744;2023-06-10T03:11:38;100261.05;;;18.89;68.24
74403;BME280;62837;51.082;13.744;2023-06-10T03:14:09;100261.88;;;18.89;67.90
74403;BME280;62837;51.082;13.744;2023-06-10T03:16:40;100261.14;;;18.79;68.09
74403;BME280;62837;51.082;13.744;2023-06-10T03:19:12;100264.89;;;18.67;68.24
74403;BME280;62837;51.082;13.744;2023-06-10T03:21:45;100263.06;;;18.64;68.46
74403;BME280;62837;51.082;13.744;2023-06-10T03:24:16;100265.21;;;18.70;68.20
74403;BME280;62837;51.082;13.744;2023-06-10T03:26:47;100270.63;;;18.76;68.00
74403;BME280;62837;51.082;13.744;2023-06-10T03:29:18;100270.81;;;18.79;67.86
74403;BME280;62837;51.082;13.744;2023-06-10T03:31:50;100269.08;;;18.84;67.83
74403;BME280;62837;51.082;13.744;2023-06-10T03:34:21;100264.63;;;18.80;67.45
74403;BME280;62837;51.082;13.744;2023-06-10T03:36:53;100266.33;;;18.67;67.61
74403;BME280;62837;51.082;13.744;2023-06-10T03:39:24;100271.40;;;18.56;67.75
74403;BME280;62837;51.082;13.744;2023-06-10T03:41:59;100267.15;;;18.51;68.01
74403;BME280;62837;51.082;13.744;2023-06-10T03:44:30;100268.90;;;18.45;67.99
74403;BME280;62837;51.082;13.744;2023-06-10T03:47:01;100270.63;;;18.40;68.29
74403;BME280;62837;51.082;13.744;2023-06-10T03:49:32;100275.51;;;18.38;68.39
74403;BME280;62837;51.082;13.744;2023-06-10T03:52:04;100275.24;;;18.36;68.43
74403;BME280;62837;51.082;13.744;2023-06-10T03:54:35;100280.10;;;18.37;68.44
74403;BME280;62837;51.082;13.744;2023-06-10T03:57:06;100280.95;;;18.45;68.51
74403;BME280;62837;51.082;13.744;2023-06-10T03:59:38;100280.02;;;18.59;68.35
74403;BME280;62837;51.082;13.744;2023-06-10T04:02:09;100286.04;;;18.72;67.94
74403;BME280;62837;51.082;13.744;2023-06-10T04:04:40;100289.06;;;18.79;67.74
74403;BME280;62837;51.082;13.744;2023-06-10T04:07:10;100292.02;;;18.83;67.69
74403;BME280;62837;51.082;13.744;2023-06-10T04:09:42;100298.02;;;18.88;67.20
74403;BME280;62837;51.082;13.744;2023-06-10T04:12:13;100292.09;;;18.87;67.35
74403;BME280;62837;51.082;13.744;2023-06-10T04:14:44;100289.34;;;18.92;67.40
74403;BME280;62837;51.082;13.744;2023-06-10T04:17:14;100294.90;;;18.99;67.21
74403;BME280;62837;51.082;13.744;2023-06-10T04:19:46;100291.59;;;19.06;67.17
74403;BME280;62837;51.082;13.744;2023-06-10T04:22:16;100296.29;;;19.29;66.62
74403;BME280;62837;51.082;13.744;2023-06-10T04:24:47;100291.46;;;19.48;66.26
74403;BME280;62837;51.082;13.744;2023-06-10T04:27:20;100289.65;;;19.65;65.92
74403;BME280;62837;51.082;13.744;2023-06-10T04:29:50;100287.83;;;19.91;65.72
74403;BME280;62837;51.082;13.744;2023-06-10T04:32:22;100285.16;;;20.25;64.79
74403;BME280;62837;51.082;13.744;2023-06-10T04:34:53;100286.41;;;20.59;64.56
74403;BME280;62837;51.082;13.744;2023-06-10T04:37:23;100286.59;;;20.97;63.59
74403;BME280;62837;51.082;13.744;2023-06-10T04:39:54;100287.75;;;21.31;62.91
74403;BME280;62837;51.082;13.744;2023-06-10T04:42:26;100290.91;;;21.68;61.92
74403;BME280;62837;51.082;13.744;2023-06-10T04:44:57;100286.80;;;21.88;61.04
74403;BME280;62837;51.082;13.744;2023-06-10T04:47:28;100287.61;;;22.09;60.81
74403;BME280;62837;51.082;13.744;2023-06-10T04:50:03;100287.05;;;22.39;60.50
74403;BME280;62837;51.082;13.744;2023-06-10T04:52:34;100288.16;;;22.71;59.75
74403;BME280;62837;51.082;13.744;2023-06-10T04:55:08;100286.00;;;23.03;59.22
74403;BME280;62837;51.082;13.744;2023-06-10T04:57:40;100285.55;;;23.35;58.42
74403;BME280;62837;51.082;13.744;2023-06-10T05:00:12;100286.60;;;23.64;57.61
74403;BME280;62837;51.082;13.744;2023-06-10T05:02:43;100286.61;;;23.84;56.90
74403;BME280;62837;51.082;13.744;2023-06-10T05:05:19;100287.09;;;24.02;56.49
74403;BME280;62837;51.082;13.744;2023-06-10T05:07:50;100288.58;;;24.20;55.92
74403;BME280;62837;51.082;13.744;2023-06-10T05:10:20;100291.94;;;24.35;55.52
74403;BME280;62837;51.082;13.744;2023-06-10T05:12:51;100289.35;;;24.55;55.20
74403;BME280;62837;51.082;13.744;2023-06-10T05:15:22;100289.33;;;24.78;54.80
74403;BME280;62837;51.082;13.744;2023-06-10T05:17:53;100288.02;;;25.04;54.81
74403;BME280;62837;51.082;13.744;2023-06-10T05:20:24;100284.08;;;25.23;53.62
74403;BME280;62837;51.082;13.744;2023-06-10T05:22:55;100288.09;;;25.28;52.02
74403;BME280;62837;51.082;13.744;2023-06-10T05:25:28;100291.02;;;25.27;51.76
74403;BME280;62837;51.082;13.744;2023-06-10T05:28:00;100295.22;;;25.31;51.49
74403;BME280;62837;51.082;13.744;2023-06-10T05:30:31;100293.77;;;25.40;51.39
74403;BME280;62837;51.082;13.744;2023-06-10T05:33:02;100294.33;;;25.52;51.03
74403;BME280;62837;51.082;13.744;2023-06-10T05:35:33;100299.30;;;25.65;50.00
74403;BME280;62837;51.082;13.744;2023-06-10T05:38:04;100293.48;;;25.76;49.63
74403;BME280;62837;51.082;13.744;2023-06-10T05:40:35;100297.75;;;25.95;49.53
74403;BME280;62837;51.082;13.744;2023-06-10T05:43:06;100297.02;;;26.25;49.50
74403;BME280;62837;51.082;13.744;2023-06-10T05:45:36;100297.90;;;26.58;48.34
74403;BME280;62837;51.082;13.744;2023-06-10T05:48:10;100297.44;;;26.84;48.20
74403;BME280;62837;51.082;13.744;2023-06-10T05:50:41;100301.88;;;27.06;47.83
74403;BME280;62837;51.082;13.744;2023-06-10T05:53:14;100301.45;;;27.21;46.95
74403;BME280;62837;51.082;13.744;2023-06-10T05:55:45;100298.92;;;27.31;46.87
74403;BME280;62837;51.082;13.744;2023-06-10T05:58:16;100301.98;;;27.36;46.60
74403;BME280;62837;51.082;13.744;2023-06-10T06:00:47;100296.23;;;27.39;46.59
74403;BME280;62837;51.082;13.744;2023-06-10T06:03:18;100301.55;;;27.27;46.27
74403;BME280;62837;51.082;13.744;2023-06-10T06:05:49;100300.45;;;27.08;46.63
74403;BME280;62837;51.082;13.744;2023-06-10T06:08:20;100299.67;;;27.10;46.86
74403;BME280;62837;51.082;13.744;2023-06-10T06:10:51;100300.47;;;27.09;46.94
74403;BME280;62837;51.082;13.744;2023-06-10T06:13:21;100301.88;;;27.19;47.00
74403;BME280;62837;51.082;13.744;2023-06-10T06:15:52;100298.84;;;27.40;46.66
74403;BME280;62837;51.082;13.744;2023-06-10T06:18:23;100299.73;;;27.65;46.07
74403;BME280;62837;51.082;13.744;2023-06-10T06:20:54;100302.91;;;27.80;45.81
74403;BME280;62837;51.082;13.744;2023-06-10T06:23:24;100302.78;;;27.96;45.37
74403;BME280;62837;51.082;13.744;2023-06-10T06:25:55;100304.38;;;28.00;44.35
74403;BME280;62837;51.082;13.744;2023-06-10T06:28:26;100303.45;;;27.93;44.86
74403;BME280;62837;51.082;13.744;2023-06-10T06:30:58;100303.50;;;27.92;44.81
74403;BME280;62837;51.082;13.744;2023-06-10T06:33:30;100305.20;;;27.87;44.59
74403;BME280;62837;51.082;13.744;2023-06-10T06:36:00;100306.69;;;27.84;44.56
74403;BME280;62837;51.082;13.744;2023-06-10T06:38:31;100308.08;;;27.80;44.74
74403;BME280;62837;51.082;13.744;2023-06-10T06:41:04;100305.18;;;27.54;44.75
74403;BME280;62837;51.082;13.744;2023-06-10T06:43:36;100303.84;;;27.36;45.03
74403;BME280;62837;51.082;13.744;2023-06-10T06:46:30;100309.82;;;27.20;45.34
74403;BME280;62837;51.082;13.744;2023-06-10T06:49:01;100313.29;;;26.97;45.47
74403;BME280;62837;51.082;13.744;2023-06-10T06:51:33;100324.20;;;26.90;46.08
74403;BME280;62837;51.082;13.744;2023-06-10T06:54:05;100321.29;;;27.05;46.23
74403;BME280;62837;51.082;13.744;2023-06-10T06:56:36;100324.80;;;27.18;46.24
74403;BME280;62837;51.082;13.744;2023-06-10T06:59:07;100328.05;;;27.13;45.95
74403;BME280;62837;51.082;13.744;2023-06-10T07:01:39;100332.23;;;26.92;45.42
74403;BME280;62837;51.082;13.744;2023-06-10T07:04:10;100335.48;;;26.94;45.70
74403;BME280;62837;51.082;13.744;2023-06-10T07:06:41;100340.62;;;26.92;46.16
74403;BME280;62837;51.082;13.744;2023-06-10T07:09:12;100343.73;;;26.85;45.91
74403;BME280;62837;51.082;13.744;2023-06-10T07:11:42;100341.91;;;26.73;46.38
74403;BME280;62837;51.082;13.744;2023-06-10T07:14:13;100347.45;;;26.57;46.90
74403;BME280;62837;51.082;13.744;2023-06-10T07:16:44;100343.44;;;26.41;47.73
74403;BME280;62837;51.082;13.744;2023-06-10T07:19:17;100346.41;;;26.19;48.17
74403;BME280;62837;51.082;13.744;2023-06-10T07:21:48;100348.52;;;25.94;48.42
74403;BME280;62837;51.082;13.744;2023-06-10T07:24:20;100345.09;;;25.73;48.69
74403;BME280;62837;51.082;13.744;2023-06-10T07:26:51;100348.54;;;25.64;49.05
74403;BME280;62837;51.082;13.744;2023-06-10T07:29:22;100352.30;;;25.56;49.33
74403;BME280;62837;51.082;13.744;2023-06-10T07:31:52;100359.80;;;25.45;49.54
74403;BME280;62837;51.082;13.744;2023-06-10T07:34:23;100361.43;;;25.38;50.21
74403;BME280;62837;51.082;13.744;2023-06-10T07:36:54;100357.21;;;25.37;50.33
74403;BME280;62837;51.082;13.744;2023-06-10T07:39:25;100362.57;;;25.35;50.65
74403;BME280;62837;51.082;13.744;2023-06-10T07:41:55;100364.09;;;25.35;50.54
74403;BME280;62837;51.082;13.744;2023-06-10T07:44:28;100364.67;;;25.41;50.97
74403;BME280;62837;51.082;13.744;2023-06-10T07:46:59;100363.58;;;25.53;50.62
74403;BME280;62837;51.082;13.744;2023-06-10T07:49:29;100364.33;;;25.65;50.55
74403;BME280;62837;51.082;13.744;2023-06-10T07:52:00;100367.37;;;25.82;50.65
74403;BME280;62837;51.082;13.744;2023-06-10T07:54:31;100365.68;;;25.98;50.29
74403;BME280;62837;51.082;13.744;2023-06-10T07:57:02;100366.34;;;26.14;50.00
74403;BME280;62837;51.082;13.744;2023-06-10T07:59:33;100360.62;;;26.23;49.46
74403;BME280;62837;51.082;13.744;2023-06-10T08:02:05;100360.60;;;26.28;49.87
74403;BME280;62837;51.082;13.744;2023-06-10T08:04:36;100363.38;;;26.36;49.56
74403;BME280;62837;51.082;13.744;2023-06-10T08:07:07;100359.20;;;26.40;49.10
74403;BME280;62837;51.082;13.744;2023-06-10T08:09:38;100355.98;;;26.50;48.99
74403;BME280;62837;51.082;13.744;2023-06-10T08:12:09;100361.09;;;26.62;49.57
74403;BME280;62837;51.082;13.744;2023-06-10T08:14:40;100361.08;;;26.92;49.13
74403;BME280;62837;51.082;13.744;2023-06-10T08:17:12;100360.66;;;27.18;48.10
74403;BME280;62837;51.082;13.744;2023-06-10T08:19:42;100358.10;;;27.42;47.57
74403;BME280;62837;51.082;13.744;2023-06-10T08:22:13;100363.91;;;27.66;47.58
74403;BME280;62837;51.082;13.744;2023-06-10T08:24:44;100362.20;;;27.91;46.83
74403;BME280;62837;51.082;13.744;2023-06-10T08:27:17;100360.67;;;28.13;45.86
74403;BME280;62837;51.082;13.744;2023-06-10T08:29:48;100367.91;;;28.30;45.85
74403;BME280;62837;51.082;13.744;2023-06-10T08:32:20;100364.24;;;28.47;45.15
74403;BME280;62837;51.082;13.744;2023-06-10T08:34:51;100373.50;;;28.60;44.64
74403;BME280;62837;51.082;13.744;2023-06-10T08:37:21;100364.96;;;28.68;44.04
74403;BME280;62837;51.082;13.744;2023-06-10T08:39:52;100373.46;;;28.72;44.61
74403;BME280;62837;51.082;13.744;2023-06-10T08:42:27;100372.02;;;28.69;43.91
74403;BME280;62837;51.082;13.744;2023-06-10T08:44:59;100367.00;;;28.70;43.74
74403;BME280;62837;51.082;13.744;2023-06-10T08:47:35;100372.35;;;28.79;43.77
74403;BME280;62837;51.082;13.744;2023-06-10T08:50:08;100368.23;;;28.91;43.10
74403;BME280;62837;51.082;13.744;2023-06-10T08:52:44;100363.02;;;28.94;42.99
74403;BME280;62837;51.082;13.744;2023-06-10T08:55:17;100355.17;;;29.00;42.96
74403;BME280;62837;51.082;13.744;2023-06-10T08:57:49;100361.01;;;29.00;41.59
74403;BME280;62837;51.082;13.744;2023-06-10T09:00:20;100358.27;;;28.83;41.49
74403;BME280;62837;51.082;13.744;2023-06-10T09:02:52;100361.16;;;28.83;41.66
74403;BME280;62837;51.082;13.744;2023-06-10T09:05:23;100363.29;;;28.89;41.75
74403;BME280;62837;51.082;13.744;2023-06-10T09:07:54;100358.26;;;28.95;40.40
74403;BME280;62837;51.082;13.744;2023-06-10T09:10:27;100358.40;;;28.82;40.70
74403;BME280;62837;51.082;13.744;2023-06-10T09:12:58;100362.88;;;28.58;40.56
74403;BME280;62837;51.082;13.744;2023-06-10T09:15:29;100367.80;;;28.37;41.30
74403;BME280;62837;51.082;13.744;2023-06-10T09:18:00;100356.23;;;28.27;41.09
74403;BME280;62837;51.082;13.744;2023-06-10T09:20:30;100357.56;;;28.20;40.93
74403;BME280;62837;51.082;13.744;2023-06-10T09:23:02;100357.58;;;28.08;41.33
74403;BME280;62837;51.082;13.744;2023-06-10T09:25:39;100355.67;;;27.96;41.15
74403;BME280;62837;51.082;13.744;2023-06-10T09:28:16;100361.29;;;27.90;40.88
74403;BME280;62837;51.082;13.744;2023-06-10T09:30:46;100355.13;;;27.70;41.21
74403;BME280;62837;51.082;13.744;2023-06-10T09:33:17;100358.36;;;27.66;42.20
74403;BME280;62837;51.082;13.744;2023-06-10T09:35:49;100353.81;;;27.65;42.17
74403;BME280;62837;51.082;13.744;2023-06-10T09:38:22;100359.89;;;27.66;42.37
74403;BME280;62837;51.082;13.744;2023-06-10T09:40:54;100359.93;;;27.64;42.24
74403;BME280;62837;51.082;13.744;2023-06-10T09:43:39;100353.70;;;27.63;42.28
74403;BME280;62837;51.082;13.744;2023-06-10T09:46:17;100353.90;;;27.82;42.17
74403;BME280;62837;51.082;13.744;2023-06-10T09:48:49;100350.90;;;27.91;41.23
74403;BME280;62837;51.082;13.744;2023-06-10T09:51:19;100347.89;;;27.91;41.43
74403;BME280;62837;51.082;13.744;2023-06-10T09:53:52;100351.08;;;28.01;41.94
74403;BME280;62837;51.082;13.744;2023-06-10T09:56:34;100353.96;;;28.21;41.47
74403;BME280;62837;51.082;13.744;2023-06-10T09:59:05;100351.59;;;28.30;39.46
74403;BME280;62837;51.082;13.744;2023-06-10T10:01:36;100355.30;;;28.33;39.42
74403;BME280;62837;51.082;13.744;2023-06-10T10:04:07;100350.13;;;28.29;38.21
74403;BME280;62837;51.082;13.744;2023-06-10T10:06:38;100364.16;;;28.37;38.23
74403;BME280;62837;51.082;13.744;2023-06-10T10:09:09;100363.23;;;28.39;36.45
74403;BME280;62837;51.082;13.744;2023-06-10T10:11:40;100363.52;;;28.33;36.30
74403;BME280;62837;51.082;13.744;2023-06-10T10:14:13;100364.85;;;28.15;36.68
74403;BME280;62837;51.082;13.744;2023-06-10T10:16:44;100363.31;;;28.08;36.82
74403;BME280;62837;51.082;13.744;2023-06-10T10:19:20;100352.60;;;28.10;37.31
74403;BME280;62837;51.082;13.744;2023-06-10T10:21:55;100352.21;;;28.14;37.59
74403;BME280;62837;51.082;13.744;2023-06-10T10:24:33;100351.24;;;28.18;37.45
74403;BME280;62837;51.082;13.744;2023-06-10T10:27:07;100348.63;;;28.26;37.52
74403;BME280;62837;51.082;13.744;2023-06-10T10:29:43;100347.59;;;28.32;37.38
74403;BME280;62837;51.082;13.744;2023-06-10T10:32:17;100347.20;;;28.28;37.45
74403;BME280;62837;51.082;13.744;2023-06-10T10:34:53;100346.98;;;28.11;38.16
74403;BME280;62837;51.082;13.744;2023-06-10T10:37:27;100348.63;;;27.94;37.84
74403;BME280;62837;51.082;13.744;2023-06-10T10:39:59;100348.45;;;27.76;38.46
74403;BME280;62837;51.082;13.744;2023-06-10T10:42:31;100347.98;;;27.77;38.58
74403;BME280;62837;51.082;13.744;2023-06-10T10:45:06;100346.56;;;27.74;38.58
74403;BME280;62837;51.082;13.744;2023-06-10T10:47:39;100346.91;;;27.76;38.95
74403;BME280;62837;51.082;13.744;2023-06-10T10:50:17;100347.60;;;27.65;39.36
74403;BME280;62837;51.082;13.744;2023-06-10T10:52:53;100352.16;;;27.55;39.69
74403;BME280;62837;51.082;13.744;2023-06-10T10:55:26;100355.89;;;27.56;40.07
74403;BME280;62837;51.082;13.744;2023-06-10T10:58:02;100350.22;;;27.43;39.83
74403;BME280;62837;51.082;13.744;2023-06-10T11:00:34;100348.22;;;27.24;39.88
74403;BME280;62837;51.082;13.744;2023-06-10T11:03:12;100348.17;;;27.11;39.58
74403;BME280;62837;51.082;13.744;2023-06-10T11:05:46;100346.39;;;27.06;40.34
74403;BME280;62837;51.082;13.744;2023-06-10T11:08:47;100347.71;;;26.96;40.64
74403;BME280;62837;51.082;13.744;2023-06-10T11:11:22;100344.14;;;26.82;40.53
74403;BME280;62837;51.082;13.744;2023-06-10T11:14:08;100339.61;;;26.67;40.59
74403;BME280;62837;51.082;13.744;2023-06-10T11:16:44;100335.51;;;26.57;41.04
74403;BME280;62837;51.082;13.744;2023-06-10T11:19:35;100328.92;;;26.51;41.47
74403;BME280;62837;51.082;13.744;2023-06-10T11:22:08;100324.30;;;26.64;41.34
74403;BME280;62837;51.082;13.744;2023-06-10T11:24:51;100324.38;;;26.87;41.06
74403;BME280;62837;51.082;13.744;2023-06-10T11:27:22;100322.04;;;27.03;41.03
74403;BME280;62837;51.082;13.744;2023-06-10T11:30:19;100324.83;;;27.12;40.51
74403;BME280;62837;51.082;13.744;2023-06-10T11:32:53;100316.34;;;27.04;40.81
74403;BME280;62837;51.082;13.744;2023-06-10T11:35:29;100317.65;;;26.93;40.51
74403;BME280;62837;51.082;13.744;2023-06-10T11:38:00;100312.20;;;26.81;40.01
74403;BME280;62837;51.082;13.744;2023-06-10T11:40:32;100313.58;;;26.78;40.23
74403;BME280;62837;51.082;13.744;2023-06-10T11:43:04;100308.62;;;26.86;40.76
74403;BME280;62837;51.082;13.744;2023-06-10T11:45:33;100307.39;;;27.00;40.29
74403;BME280;62837;51.082;13.744;2023-06-10T11:48:05;100308.11;;;26.96;40.59
74403;BME280;62837;51.082;13.744;2023-06-10T11:50:36;100315.91;;;27.03;40.36
74403;BME280;62837;51.082;13.744;2023-06-10T11:53:09;100307.30;;;27.16;40.30
74403;BME280;62837;51.082;13.744;2023-06-10T11:55:47;100307.26;;;27.09;40.22
74403;BME280;62837;51.082;13.744;2023-06-10T11:58:20;100311.90;;;27.00;39.93
74403;BME280;62837;51.082;13.744;2023-06-10T12:00:53;100306.81;;;26.88;40.07
74403;BME280;62837;51.082;13.744;2023-06-10T12:03:26;100301.47;;;26.87;40.18
74403;BME280;62837;51.082;13.744;2023-06-10T12:05:58;100303.67;;;26.78;40.08
74403;BME280;62837;51.082;13.744;2023-06-10T12:08:30;100300.70;;;26.65;39.97
74403;BME280;62837;51.082;13.744;2023-06-10T12:11:05;100296.59;;;26.64;39.96
74403;BME280;62837;51.082;13.744;2023-06-10T12:13:35;100294.83;;;26.83;40.07
74403;BME280;62837;51.082;13.744;2023-06-10T12:16:08;100293.15;;;27.01;39.63
74403;BME280;62837;51.082;13.744;2023-06-10T12:18:39;100301.90;;;27.19;38.61
74403;BME280;62837;51.082;13.744;2023-06-10T12:21:18;100296.39;;;27.34;37.58
74403;BME280;62837;51.082;13.744;2023-06-10T12:24:04;100287.49;;;27.43;37.58
74403;BME280;62837;51.082;13.744;2023-06-10T12:26:40;100276.09;;;27.56;37.32
74403;BME280;62837;51.082;13.744;2023-06-10T12:29:26;100269.15;;;27.70;37.12
74403;BME280;62837;51.082;13.744;2023-06-10T12:32:00;100269.51;;;27.81;36.69
74403;BME280;62837;51.082;13.744;2023-06-10T12:34:35;100266.90;;;27.91;36.61
74403;BME280;62837;51.082;13.744;2023-06-10T12:37:10;100270.81;;;27.97;36.11
74403;BME280;62837;51.082;13.744;2023-06-10T12:39:43;100271.83;;;28.00;35.47
74403;BME280;62837;51.082;13.744;2023-06-10T12:42:23;100282.27;;;28.02;35.53
74403;BME280;62837;51.082;13.744;2023-06-10T12:44:55;100277.86;;;28.03;35.12
74403;BME280;62837;51.082;13.744;2023-06-10T12:47:34;100272.43;;;28.02;34.41
74403;BME280;62837;51.082;13.744;2023-06-10T12:50:08;100274.25;;;28.00;34.70
74403;BME280;62837;51.082;13.744;2023-06-10T12:52:39;100271.59;;;27.99;34.42
74403;BME280;62837;51.082;13.744;2023-06-10T12:55:11;100271.02;;;28.00;34.21
74403;BME280;62837;51.082;13.744;2023-06-10T12:57:50;100265.30;;;28.01;34.52
74403;BME280;62837;51.082;13.744;2023-06-10T13:00:22;100263.98;;;28.04;34.55
74403;BME280;62837;51.082;13.744;2023-06-10T13:02:55;100266.82;;;28.12;34.65
74403;BME280;62837;51.082;13.744;2023-06-10T13:05:26;100284.27;;;28.11;34.49
74403;BME280;62837;51.082;13.744;2023-06-10T13:07:57;100266.35;;;28.06;34.41